Shannon Dann — WCD6367 — position and weather

sailwx.info

Track history (hours):
 
Tides and Currents Weather Stations Pressure Air Temp Water Temp Dewpoint Dewpoint Depression Visibility Wind Speed Wind Dir Waves Ship Positions

Shannon Dann

Owner: Dann Ocean Towing, TAMPA, FL. More information available from US FCC via Universal Licensing System and Coast Guard Vessel Documentation Center.

Last reported at 2018-Jan-09 14:53 UTC. Time now 2018-Jan-21 22:45 UTC.
Position N 27°05' W 079°54'.
Warning: this ship's position is 12 days out of date.

Length 30 m; draft 4 m.

Type: Tow > 200 m length. MMSI: 338533000.

Date/timePositionNaut miles runAvg speedWind from/ knotsBaromVisibWave heightAir tempDewpointWater temp
2018-Jan-09 14:53N 27°05' W 079°54'4 7.6
2018-Jan-09 14:24N 27°07' W 079°58'  
2018-Jan-06 02:07N 36°52' W 075°54'2 9.2
2018-Jan-06 01:56N 36°53' W 075°55'4 9.9
2018-Jan-06 01:30N 36°56' W 075°59'610.4
2018-Jan-06 00:57N 36°58' W 076°06'  
2018-Jan-01 01:32N 36°58' W 076°20'0 0.7
2018-Jan-01 01:30N 36°58' W 076°20'5 4.6
2018-Jan-01 00:30N 36°53' W 076°20'4 1.1
2017-Dec-31 21:00N 36°50' W 076°17'0 0.0
2017-Dec-31 20:30N 36°50' W 076°17'0 0.0
2017-Dec-31 20:00N 36°50' W 076°17'0 0.0
2017-Dec-31 19:30N 36°50' W 076°17'0 0.0
2017-Dec-31 18:48N 36°50' W 076°17'0 0.0
2017-Dec-31 18:21N 36°50' W 076°17'0 0.0
2017-Dec-31 18:00N 36°50' W 076°17'0 0.1
2017-Dec-31 17:29N 36°50' W 076°17'0 0.0
2017-Dec-31 16:59N 36°50' W 076°17'0 0.0
2017-Dec-31 16:30N 36°50' W 076°17'0 0.0
2017-Dec-31 15:58N 36°50' W 076°17'0 0.0
2017-Dec-31 15:30N 36°50' W 076°17'0 1.0
2017-Dec-31 15:00N 36°50' W 076°17'0 1.0
2017-Dec-31 14:30N 36°50' W 076°17'0 0.0
2017-Dec-31 14:00N 36°50' W 076°17'0 0.0
2017-Dec-31 13:30N 36°50' W 076°17'0 0.0
2017-Dec-31 13:00N 36°50' W 076°17'0 0.0
2017-Dec-31 12:30N 36°50' W 076°17'0 0.0
2017-Dec-31 12:00N 36°50' W 076°17'0 0.0
2017-Dec-31 11:30N 36°50' W 076°17'0 0.0
2017-Dec-31 11:00N 36°50' W 076°17'0 0.0
2017-Dec-31 10:30N 36°50' W 076°17'0 0.0
2017-Dec-31 10:00N 36°50' W 076°17'0 0.0
2017-Dec-31 09:30N 36°50' W 076°17'0 0.0
2017-Dec-31 09:00N 36°50' W 076°17'0 0.0
2017-Dec-31 08:30N 36°50' W 076°17'0 0.0
2017-Dec-31 08:00N 36°50' W 076°17'0 0.0
2017-Dec-31 07:30N 36°50' W 076°17'0 0.0
2017-Dec-31 07:00N 36°50' W 076°17'0 0.0
2017-Dec-31 06:30N 36°50' W 076°17'0 0.0
2017-Dec-31 06:00N 36°50' W 076°17'0 0.0
2017-Dec-31 05:30N 36°50' W 076°17'0 0.0
2017-Dec-31 05:00N 36°50' W 076°17'0 0.0
2017-Dec-31 04:30N 36°50' W 076°17'0 0.0
2017-Dec-31 04:01N 36°50' W 076°17'0 0.0
2017-Dec-31 03:30N 36°50' W 076°17'0 0.0
2017-Dec-31 03:01N 36°50' W 076°17'0 0.0
2017-Dec-31 02:30N 36°50' W 076°17'0 0.0
2017-Dec-31 02:00N 36°50' W 076°17'0 0.0
2017-Dec-31 01:30N 36°50' W 076°17'0 0.0
2017-Dec-31 01:00N 36°50' W 076°17'0 0.0
2017-Dec-31 00:30N 36°50' W 076°17'0 0.0
2017-Dec-31 00:01N 36°50' W 076°17'0 0.0
2017-Dec-30 23:30N 36°50' W 076°17'0 0.0
2017-Dec-30 23:00N 36°50' W 076°17'0 0.0
2017-Dec-30 22:30N 36°50' W 076°17'0 0.0
2017-Dec-30 22:01N 36°50' W 076°17'0 0.0
2017-Dec-30 21:30N 36°50' W 076°17'0 0.0
2017-Dec-30 21:00N 36°50' W 076°17'0 0.0
2017-Dec-30 20:30N 36°50' W 076°17'0 0.0
2017-Dec-30 20:00N 36°50' W 076°17'0 0.0
2017-Dec-30 19:30N 36°50' W 076°17'0 0.0
2017-Dec-30 19:00N 36°50' W 076°17'0 0.0
2017-Dec-30 18:30N 36°50' W 076°17'0 0.0
2017-Dec-30 18:00N 36°50' W 076°17'0 0.0
2017-Dec-30 17:30N 36°50' W 076°17'0 0.0
2017-Dec-30 17:00N 36°50' W 076°17'0 0.0
2017-Dec-30 16:30N 36°50' W 076°17'0 0.0
2017-Dec-30 16:00N 36°50' W 076°17'0 0.0
2017-Dec-30 15:30N 36°50' W 076°17'  
Track history (hours):
 
Tides and Currents Weather Stations Pressure Air Temp Water Temp Dewpoint Dewpoint Depression Visibility Wind Speed Wind Dir Waves Ship Positions

Shannon Dann

Owner: Dann Ocean Towing, TAMPA, FL. More information available from US FCC via Universal Licensing System and Coast Guard Vessel Documentation Center.

Last reported at 2018-Jan-09 14:53 UTC. Time now 2018-Jan-21 22:45 UTC.
Position N 27°05' W 079°54'.
Warning: this ship's position is 12 days out of date.

Length 30 m; draft 4 m.

Type: Tow > 200 m length. MMSI: 338533000.

Date/timePositionNaut miles runAvg speedWind from/ knotsBaromVisibWave heightAir tempDewpointWater temp
2018-Jan-09 14:53N 27°05' W 079°54'4 7.6
2018-Jan-09 14:24N 27°07' W 079°58'  
2018-Jan-06 02:07N 36°52' W 075°54'2 9.2
2018-Jan-06 01:56N 36°53' W 075°55'4 9.9
2018-Jan-06 01:30N 36°56' W 075°59'610.4
2018-Jan-06 00:57N 36°58' W 076°06'  
2018-Jan-01 01:32N 36°58' W 076°20'0 0.7
2018-Jan-01 01:30N 36°58' W 076°20'5 4.6
2018-Jan-01 00:30N 36°53' W 076°20'4 1.1
2017-Dec-31 21:00N 36°50' W 076°17'0 0.0
2017-Dec-31 20:30N 36°50' W 076°17'0 0.0
2017-Dec-31 20:00N 36°50' W 076°17'0 0.0
2017-Dec-31 19:30N 36°50' W 076°17'0 0.0
2017-Dec-31 18:48N 36°50' W 076°17'0 0.0
2017-Dec-31 18:21N 36°50' W 076°17'0 0.0
2017-Dec-31 18:00N 36°50' W 076°17'0 0.1
2017-Dec-31 17:29N 36°50' W 076°17'0 0.0
2017-Dec-31 16:59N 36°50' W 076°17'0 0.0
2017-Dec-31 16:30N 36°50' W 076°17'0 0.0
2017-Dec-31 15:58N 36°50' W 076°17'0 0.0
2017-Dec-31 15:30N 36°50' W 076°17'0 1.0
2017-Dec-31 15:00N 36°50' W 076°17'0 1.0
2017-Dec-31 14:30N 36°50' W 076°17'0 0.0
2017-Dec-31 14:00N 36°50' W 076°17'0 0.0
2017-Dec-31 13:30N 36°50' W 076°17'0 0.0
2017-Dec-31 13:00N 36°50' W 076°17'0 0.0
2017-Dec-31 12:30N 36°50' W 076°17'0 0.0
2017-Dec-31 12:00N 36°50' W 076°17'0 0.0
2017-Dec-31 11:30N 36°50' W 076°17'0 0.0
2017-Dec-31 11:00N 36°50' W 076°17'0 0.0
2017-Dec-31 10:30N 36°50' W 076°17'0 0.0
2017-Dec-31 10:00N 36°50' W 076°17'0 0.0
2017-Dec-31 09:30N 36°50' W 076°17'0 0.0
2017-Dec-31 09:00N 36°50' W 076°17'0 0.0
2017-Dec-31 08:30N 36°50' W 076°17'0 0.0
2017-Dec-31 08:00N 36°50' W 076°17'0 0.0
2017-Dec-31 07:30N 36°50' W 076°17'0 0.0
2017-Dec-31 07:00N 36°50' W 076°17'0 0.0
2017-Dec-31 06:30N 36°50' W 076°17'0 0.0
2017-Dec-31 06:00N 36°50' W 076°17'0 0.0
2017-Dec-31 05:30N 36°50' W 076°17'0 0.0
2017-Dec-31 05:00N 36°50' W 076°17'0 0.0
2017-Dec-31 04:30N 36°50' W 076°17'0 0.0
2017-Dec-31 04:01N 36°50' W 076°17'0 0.0
2017-Dec-31 03:30N 36°50' W 076°17'0 0.0
2017-Dec-31 03:01N 36°50' W 076°17'0 0.0
2017-Dec-31 02:30N 36°50' W 076°17'0 0.0
2017-Dec-31 02:00N 36°50' W 076°17'0 0.0
2017-Dec-31 01:30N 36°50' W 076°17'0 0.0
2017-Dec-31 01:00N 36°50' W 076°17'0 0.0
2017-Dec-31 00:30N 36°50' W 076°17'0 0.0
2017-Dec-31 00:01N 36°50' W 076°17'0 0.0
2017-Dec-30 23:30N 36°50' W 076°17'0 0.0
2017-Dec-30 23:00N 36°50' W 076°17'0 0.0
2017-Dec-30 22:30N 36°50' W 076°17'0 0.0
2017-Dec-30 22:01N 36°50' W 076°17'0 0.0
2017-Dec-30 21:30N 36°50' W 076°17'0 0.0
2017-Dec-30 21:00N 36°50' W 076°17'0 0.0
2017-Dec-30 20:30N 36°50' W 076°17'0 0.0
2017-Dec-30 20:00N 36°50' W 076°17'0 0.0
2017-Dec-30 19:30N 36°50' W 076°17'0 0.0
2017-Dec-30 19:00N 36°50' W 076°17'0 0.0
2017-Dec-30 18:30N 36°50' W 076°17'0 0.0
2017-Dec-30 18:00N 36°50' W 076°17'0 0.0
2017-Dec-30 17:30N 36°50' W 076°17'0 0.0
2017-Dec-30 17:00N 36°50' W 076°17'0 0.0
2017-Dec-30 16:30N 36°50' W 076°17'0 0.0
2017-Dec-30 16:00N 36°50' W 076°17'0 0.0
2017-Dec-30 15:30N 36°50' W 076°17'  

Dump ship's entire track history